Time;durP1;ratioP1;P1;durP2;ratioP2;P2;SDS_P1;SDS_P2;PMS_P1;PMS_P2;Temp;Humidity;BMP_temperature;BMP_pressure;BME280_temperature;BME280_humidity;BME280_pressure;Samples;Min_cycle;Max_cycle;Signal;HPM_P1;HPM_P2
2021/01/02 00:01:27;;;;;;;52.17;26.90;;;;;;;;;;5030262;28;20224;-49
2021/01/02 00:03:53;;;;;;;52.30;28.23;;;;;;;;;;5030386;28;20668;-51
2021/01/02 00:06:28;;;;;;;52.50;27.60;;;;;;;;;;5030469;28;20232;-51
2021/01/02 00:09:07;;;;;;;46.97;26.80;;;;;;;;;;5030245;28;20449;-51
2021/01/02 00:11:38;;;;;;;53.70;27.02;;;;;;;;;;5032846;28;20170;-52
2021/01/02 00:14:10;;;;;;;54.00;28.42;;;;;;;;;;5033770;28;20196;-51
2021/01/02 00:16:46;;;;;;;57.80;27.55;;;;;;;;;;5034157;28;20181;-50
2021/01/02 00:19:25;;;;;;;50.65;26.50;;;;;;;;;;5033880;28;20300;-50
2021/01/02 00:22:10;;;;;;;50.70;27.83;;;;;;;;;;5033804;28;20172;-50
2021/01/02 00:24:38;;;;;;;56.10;28.05;;;;;;;;;;5033795;28;20555;-51
2021/01/02 00:27:06;;;;;;;48.92;29.15;;;;;;;;;;5033921;28;20167;-52
2021/01/02 00:29:50;;;;;;;57.20;28.08;;;;;;;;;;5033751;28;20173;-51
2021/01/02 00:32:16;;;;;;;51.50;28.00;;;;;;;;;;5033454;28;20174;-51
2021/01/02 00:34:45;;;;;;;51.87;29.13;;;;;;;;;;5033631;28;20165;-50
2021/01/02 00:37:22;;;;;;;64.93;30.38;;;;;;;;;;5033804;28;20753;-51
2021/01/02 00:40:04;;;;;;;48.88;26.52;;;;;;;;;;5033581;28;20213;-50
2021/01/02 00:42:31;;;;;;;56.15;28.70;;;;;;;;;;5033477;28;20272;-50
2021/01/02 00:44:58;;;;;;;53.40;28.05;;;;;;;;;;5032771;28;20193;-50
2021/01/02 00:47:26;;;;;;;66.82;30.83;;;;;;;;;;5033593;28;20173;-51
2021/01/02 00:49:54;;;;;;;51.60;27.60;;;;;;;;;;5033406;28;20566;-50
2021/01/02 00:52:39;;;;;;;60.55;27.98;;;;;;;;;;5033216;28;20200;-50
2021/01/02 00:55:08;;;;;;;53.35;28.05;;;;;;;;;;5033272;28;20175;-51
2021/01/02 00:57:54;;;;;;;55.08;27.80;;;;;;;;;;5033265;28;20173;-51
2021/01/02 01:00:20;;;;;;;49.13;26.40;;;;;;;;;;5023138;28;20232;-50
2021/01/02 01:03:02;;;;;;;52.58;27.30;;;;;;;;;;5033018;28;20186;-50
2021/01/02 01:05:38;;;;;;;51.80;27.20;;;;;;;;;;5033080;28;20608;-50
2021/01/02 01:08:05;;;;;;;47.13;27.48;;;;;;;;;;5033239;28;20174;-50
2021/01/02 01:10:33;;;;;;;49.33;27.60;;;;;;;;;;5033078;28;20175;-50
2021/01/02 01:13:04;;;;;;;61.17;30.52;;;;;;;;;;5032776;28;20760;-51
2021/01/02 01:15:30;;;;;;;58.75;30.42;;;;;;;;;;5032239;28;20204;-50
2021/01/02 01:18:06;;;;;;;49.95;28.00;;;;;;;;;;5032999;28;20223;-50
2021/01/02 01:20:32;;;;;;;52.75;27.40;;;;;;;;;;5032740;28;20288;-50
2021/01/02 01:23:18;;;;;;;53.20;30.13;;;;;;;;;;5031414;28;20226;-51
2021/01/02 01:25:51;;;;;;;59.17;29.08;;;;;;;;;;5032720;28;20179;-51
2021/01/02 01:28:24;;;;;;;54.03;27.25;;;;;;;;;;5033028;28;20612;-51
2021/01/02 01:30:52;;;;;;;52.55;28.58;;;;;;;;;;5032663;28;20169;-50
2021/01/02 01:33:20;;;;;;;60.85;31.23;;;;;;;;;;5032473;28;20196;-51
2021/01/02 01:35:49;;;;;;;65.75;29.75;;;;;;;;;;5032693;28;20253;-51
2021/01/02 01:38:16;;;;;;;58.28;29.52;;;;;;;;;;5032634;28;20264;-50
2021/01/02 01:40:44;;;;;;;59.03;28.95;;;;;;;;;;5032434;28;20188;-51
2021/01/02 01:43:21;;;;;;;64.80;30.75;;;;;;;;;;5032102;28;20240;-51
2021/01/02 01:46:20;;;;;;;59.45;30.60;;;;;;;;;;5032089;28;20227;-50
2021/01/02 01:48:54;;;;;;;58.28;31.10;;;;;;;;;;5020371;28;20534;-51
2021/01/02 01:51:36;;;;;;;54.25;29.00;;;;;;;;;;5032190;28;20252;-51
2021/01/02 01:54:11;;;;;;;57.88;28.75;;;;;;;;;;5032418;28;20566;-50
2021/01/02 01:56:50;;;;;;;53.70;28.90;;;;;;;;;;5032269;28;20175;-51
2021/01/02 01:59:16;;;;;;;53.08;29.73;;;;;;;;;;5032069;28;20200;-50
2021/01/02 02:01:45;;;;;;;57.70;28.70;;;;;;;;;;5031375;28;20223;-51
2021/01/02 02:04:11;;;;;;;57.88;29.63;;;;;;;;;;5031454;28;20422;-50
2021/01/02 02:06:37;;;;;;;57.20;28.23;;;;;;;;;;5031653;28;20167;-50
2021/01/02 02:09:04;;;;;;;56.00;28.90;;;;;;;;;;5031809;28;20404;-50
2021/01/02 02:11:36;;;;;;;60.53;28.30;;;;;;;;;;5031726;28;20192;-51
2021/01/02 02:14:12;;;;;;;52.22;28.95;;;;;;;;;;5031609;28;20190;-51
2021/01/02 02:16:43;;;;;;;53.20;28.23;;;;;;;;;;5031173;28;20234;-51
2021/01/02 02:19:27;;;;;;;52.53;28.23;;;;;;;;;;5048322;28;20250;-50
2021/01/02 02:21:56;;;;;;;51.03;28.58;;;;;;;;;;5051329;28;20188;-51
2021/01/02 02:24:23;;;;;;;49.45;26.65;;;;;;;;;;5051443;28;20259;-50
2021/01/02 02:26:53;;;;;;;50.72;29.42;;;;;;;;;;5051530;28;20169;-51
2021/01/02 02:29:24;;;;;;;59.65;29.58;;;;;;;;;;5051543;28;20173;-51
2021/01/02 02:31:54;;;;;;;54.10;28.13;;;;;;;;;;5051358;28;20166;-50
2021/01/02 02:34:20;;;;;;;58.13;28.67;;;;;;;;;;5050941;28;20669;-50
2021/01/02 02:36:46;;;;;;;49.55;26.88;;;;;;;;;;5051401;28;20302;-51
2021/01/02 02:39:13;;;;;;;54.95;27.40;;;;;;;;;;5051356;28;20180;-51
2021/01/02 02:41:39;;;;;;;58.67;28.38;;;;;;;;;;5051076;28;20212;-51
2021/01/02 02:44:07;;;;;;;49.90;27.93;;;;;;;;;;5051758;28;20190;-49
2021/01/02 02:46:34;;;;;;;53.35;29.10;;;;;;;;;;5041991;28;20954;-48
2021/01/02 02:49:02;;;;;;;57.22;27.55;;;;;;;;;;5031298;28;20224;-51
2021/01/02 02:51:31;;;;;;;49.42;26.30;;;;;;;;;;5030816;28;20166;-52
2021/01/02 02:53:57;;;;;;;62.17;28.00;;;;;;;;;;5031141;28;20186;-48
2021/01/02 02:56:23;;;;;;;55.20;27.40;;;;;;;;;;5031039;28;20182;-49
2021/01/02 02:58:49;;;;;;;43.30;25.90;;;;;;;;;;5031108;28;20445;-51
2021/01/02 03:01:15;;;;;;;47.67;25.77;;;;;;;;;;5030696;28;20465;-49
2021/01/02 03:06:44;;;;;;;48.65;26.40;;;;;;;;;;5030478;28;20717;-49
2021/01/02 03:09:11;;;;;;;45.83;26.70;;;;;;;;;;5031192;28;20165;-49
2021/01/02 03:11:37;;;;;;;50.45;25.88;;;;;;;;;;5030737;28;20470;-49
2021/01/02 03:14:03;;;;;;;51.95;25.83;;;;;;;;;;5030998;28;20214;-49
2021/01/02 03:16:29;;;;;;;48.00;25.90;;;;;;;;;;5033119;28;20297;-49
2021/01/02 03:18:55;;;;;;;48.67;24.80;;;;;;;;;;5050859;28;20496;-49
2021/01/02 03:21:21;;;;;;;47.27;27.20;;;;;;;;;;5050367;28;20956;-49
2021/01/02 03:23:48;;;;;;;44.05;24.10;;;;;;;;;;5050731;28;20920;-48
2021/01/02 03:26:17;;;;;;;47.88;23.08;;;;;;;;;;5049398;28;20176;-52
2021/01/02 03:28:53;;;;;;;46.30;24.73;;;;;;;;;;5051055;28;20603;-49
2021/01/02 03:31:19;;;;;;;44.97;24.30;;;;;;;;;;5049183;28;20187;-50
2021/01/02 03:33:45;;;;;;;41.10;24.40;;;;;;;;;;5050388;28;20199;-48
2021/01/02 03:36:12;;;;;;;43.78;23.45;;;;;;;;;;5050864;28;20600;-49
2021/01/02 03:38:38;;;;;;;41.58;23.85;;;;;;;;;;5050471;28;20176;-49
2021/01/02 03:41:05;;;;;;;41.95;22.85;;;;;;;;;;5050361;28;20754;-54
2021/01/02 03:43:31;;;;;;;37.78;21.48;;;;;;;;;;5050307;28;20183;-49
2021/01/02 03:45:57;;;;;;;34.83;21.17;;;;;;;;;;5049496;28;20191;-50
2021/01/02 03:48:23;;;;;;;36.60;20.40;;;;;;;;;;5034575;28;20222;-49
2021/01/02 03:50:49;;;;;;;37.13;21.35;;;;;;;;;;5034629;28;20221;-52
2021/01/02 03:53:15;;;;;;;37.57;18.93;;;;;;;;;;5034155;28;20215;-49
2021/01/02 03:55:41;;;;;;;46.77;23.00;;;;;;;;;;5034582;28;20963;-49
2021/01/02 03:58:08;;;;;;;39.80;23.77;;;;;;;;;;5034289;28;20416;-49
2021/01/02 04:00:34;;;;;;;40.45;21.05;;;;;;;;;;5034405;28;20482;-49
2021/01/02 04:03:00;;;;;;;36.33;22.45;;;;;;;;;;5034027;28;20189;-49
2021/01/02 04:05:26;;;;;;;38.40;23.17;;;;;;;;;;5034374;28;20193;-52
2021/01/02 04:07:52;;;;;;;39.83;22.03;;;;;;;;;;5034294;28;20172;-49
2021/01/02 04:10:18;;;;;;;36.87;20.70;;;;;;;;;;5034202;28;20549;-49
2021/01/02 04:12:44;;;;;;;40.27;21.40;;;;;;;;;;5033935;28;20435;-48
2021/01/02 04:15:10;;;;;;;39.40;22.57;;;;;;;;;;5033976;28;20411;-49
2021/01/02 04:17:36;;;;;;;38.75;22.75;;;;;;;;;;5033801;28;20427;-49
2021/01/02 04:20:04;;;;;;;48.07;22.67;;;;;;;;;;5033874;28;20565;-50
2021/01/02 04:22:32;;;;;;;43.83;22.17;;;;;;;;;;5033897;28;20409;-49
2021/01/02 04:24:58;;;;;;;38.28;21.38;;;;;;;;;;5033798;28;20671;-49
2021/01/02 04:27:24;;;;;;;41.28;21.38;;;;;;;;;;5034012;28;20168;-48
2021/01/02 04:29:50;;;;;;;44.37;23.47;;;;;;;;;;5033738;28;20187;-49
2021/01/02 04:32:16;;;;;;;40.40;21.80;;;;;;;;;;5033365;28;20490;-50
2021/01/02 04:34:42;;;;;;;37.50;22.00;;;;;;;;;;5033658;28;20408;-50
2021/01/02 04:37:08;;;;;;;36.17;22.17;;;;;;;;;;5033766;28;20489;-51
2021/01/02 04:39:34;;;;;;;40.00;23.33;;;;;;;;;;5033661;28;20446;-52
2021/01/02 04:42:00;;;;;;;32.70;19.95;;;;;;;;;;5033288;28;20431;-53
2021/01/02 04:44:27;;;;;;;36.55;22.15;;;;;;;;;;5033478;28;20189;-52
2021/01/02 04:46:54;;;;;;;41.47;22.42;;;;;;;;;;5032948;28;20188;-49
2021/01/02 04:49:20;;;;;;;39.47;22.30;;;;;;;;;;5033620;28;20181;-50
2021/01/02 04:51:47;;;;;;;34.78;20.83;;;;;;;;;;5033247;28;20546;-49
2021/01/02 04:54:13;;;;;;;45.70;23.30;;;;;;;;;;5033476;28;20200;-49
2021/01/02 04:56:39;;;;;;;35.70;22.93;;;;;;;;;;5033232;28;20253;-49
2021/01/02 04:59:09;;;;;;;38.42;21.35;;;;;;;;;;5033321;28;20400;-49
2021/01/02 05:01:37;;;;;;;41.30;22.50;;;;;;;;;;5033185;28;20644;-49
2021/01/02 05:04:03;;;;;;;36.30;21.70;;;;;;;;;;5033492;28;20697;-48
2021/01/02 05:06:29;;;;;;;42.80;21.55;;;;;;;;;;5033226;28;20174;-49
2021/01/02 05:08:55;;;;;;;36.10;21.53;;;;;;;;;;5033302;28;20174;-49
2021/01/02 05:11:21;;;;;;;45.27;23.03;;;;;;;;;;5032736;28;20492;-50
2021/01/02 05:13:47;;;;;;;39.72;20.20;;;;;;;;;;5033046;28;20431;-49
2021/01/02 05:16:23;;;;;;;39.63;21.50;;;;;;;;;;5032647;28;20645;-49
2021/01/02 05:18:59;;;;;;;37.80;20.65;;;;;;;;;;5032878;28;20696;-50
2021/01/02 05:21:25;;;;;;;39.40;23.23;;;;;;;;;;5032577;28;20827;-49
2021/01/02 05:24:10;;;;;;;35.65;21.92;;;;;;;;;;5032693;28;20192;-52
2021/01/02 05:26:38;;;;;;;35.75;21.05;;;;;;;;;;5032896;28;20249;-49
2021/01/02 05:29:10;;;;;;;36.25;21.20;;;;;;;;;;5032889;28;20173;-52
2021/01/02 05:31:37;;;;;;;36.08;19.17;;;;;;;;;;5032694;28;20222;-49
2021/01/02 05:34:04;;;;;;;39.75;22.88;;;;;;;;;;5032626;28;20291;-51
2021/01/02 05:36:30;;;;;;;36.88;21.63;;;;;;;;;;5032545;28;20597;-51
2021/01/02 05:38:56;;;;;;;38.00;21.87;;;;;;;;;;5032526;28;20243;-52
2021/01/02 05:41:22;;;;;;;38.30;21.10;;;;;;;;;;5032359;28;20455;-52
2021/01/02 05:43:48;;;;;;;44.67;20.27;;;;;;;;;;5032375;28;20702;-49
2021/01/02 05:46:14;;;;;;;40.43;22.20;;;;;;;;;;5031895;28;20442;-49
2021/01/02 05:48:40;;;;;;;35.20;21.52;;;;;;;;;;5032302;28;20404;-49
2021/01/02 05:51:07;;;;;;;37.30;21.87;;;;;;;;;;5032131;28;20306;-48
2021/01/02 05:53:34;;;;;;;40.95;20.70;;;;;;;;;;5032174;28;20424;-48
2021/01/02 05:56:03;;;;;;;34.50;19.48;;;;;;;;;;5032335;28;20200;-50
2021/01/02 05:58:29;;;;;;;42.53;21.63;;;;;;;;;;5032219;28;20173;-52
2021/01/02 06:01:09;;;;;;;35.05;20.08;;;;;;;;;;5032153;28;20275;-48
2021/01/02 06:03:36;;;;;;;34.40;20.52;;;;;;;;;;5031972;28;20188;-49
2021/01/02 06:06:06;;;;;;;35.53;20.35;;;;;;;;;;5032132;28;20205;-52
2021/01/02 06:08:46;;;;;;;31.48;18.17;;;;;;;;;;5031489;28;20166;-49
2021/01/02 06:11:17;;;;;;;37.67;20.20;;;;;;;;;;5031574;28;20542;-49
2021/01/02 06:13:44;;;;;;;35.13;19.52;;;;;;;;;;5031929;28;20209;-51
2021/01/02 06:16:11;;;;;;;38.88;21.38;;;;;;;;;;5031464;28;20226;-51
2021/01/02 06:18:38;;;;;;;35.03;20.40;;;;;;;;;;5031896;28;20170;-49
2021/01/02 06:21:08;;;;;;;29.95;19.33;;;;;;;;;;5031480;28;20669;-54
2021/01/02 06:23:35;;;;;;;34.88;18.77;;;;;;;;;;5031710;28;20277;-49
2021/01/02 06:26:04;;;;;;;34.63;19.58;;;;;;;;;;5031632;28;20174;-49
2021/01/02 06:28:30;;;;;;;29.00;17.40;;;;;;;;;;5031652;28;20184;-51
2021/01/02 06:31:00;;;;;;;35.57;21.17;;;;;;;;;;5031470;28;20178;-49
2021/01/02 06:33:28;;;;;;;32.33;20.27;;;;;;;;;;5031300;28;20820;-51
2021/01/02 06:35:54;;;;;;;29.33;18.45;;;;;;;;;;5031464;28;20201;-51
2021/01/02 06:38:20;;;;;;;33.75;18.00;;;;;;;;;;5031513;28;20180;-52
2021/01/02 06:40:47;;;;;;;32.58;18.23;;;;;;;;;;5031334;28;20208;-51
2021/01/02 06:43:17;;;;;;;27.30;17.25;;;;;;;;;;5031073;28;20185;-49
2021/01/02 06:45:44;;;;;;;30.88;19.13;;;;;;;;;;5030868;28;20194;-50
2021/01/02 06:48:13;;;;;;;33.40;17.25;;;;;;;;;;5030855;28;20208;-49
2021/01/02 06:50:43;;;;;;;28.10;16.48;;;;;;;;;;5031291;28;20181;-50
2021/01/02 06:53:25;;;;;;;35.88;18.90;;;;;;;;;;5030802;28;20226;-49
2021/01/02 06:56:04;;;;;;;31.17;17.83;;;;;;;;;;5031175;28;20704;-50
2021/01/02 06:59:02;;;;;;;31.73;18.45;;;;;;;;;;5031073;28;20181;-49
2021/01/02 07:01:28;;;;;;;34.05;17.05;;;;;;;;;;5018224;28;20218;-48
2021/01/02 07:03:54;;;;;;;33.20;17.60;;;;;;;;;;5030255;28;20194;-48
2021/01/02 07:06:23;;;;;;;28.37;17.47;;;;;;;;;;5030619;28;20423;-49
2021/01/02 07:09:09;;;;;;;32.83;19.58;;;;;;;;;;5030567;28;20411;-52
2021/01/02 07:11:35;;;;;;;31.45;17.83;;;;;;;;;;5026294;28;20200;-52
2021/01/02 07:14:11;;;;;;;34.47;20.00;;;;;;;;;;5030145;28;20240;-53
2021/01/02 07:16:37;;;;;;;31.13;18.00;;;;;;;;;;5030264;28;20267;-49
2021/01/02 07:19:06;;;;;;;36.47;18.48;;;;;;;;;;5029924;28;20216;-52
2021/01/02 07:21:36;;;;;;;39.28;17.75;;;;;;;;;;5030039;28;20176;-48
2021/01/02 07:24:34;;;;;;;30.13;16.77;;;;;;;;;;5030697;28;20222;-49
2021/01/02 07:27:01;;;;;;;29.67;16.58;;;;;;;;;;5018828;28;20647;-49
2021/01/02 07:29:29;;;;;;;30.45;17.25;;;;;;;;;;5030759;28;20197;-48
2021/01/02 07:32:04;;;;;;;30.27;18.45;;;;;;;;;;5030823;28;20597;-49
2021/01/02 07:34:30;;;;;;;34.03;17.38;;;;;;;;;;5030748;28;20578;-54
2021/01/02 07:36:56;;;;;;;32.67;18.70;;;;;;;;;;5031021;28;20173;-48
2021/01/02 07:39:22;;;;;;;28.92;17.65;;;;;;;;;;5031657;28;20422;-53
2021/01/02 07:41:52;;;;;;;29.67;17.50;;;;;;;;;;5043938;28;20203;-48
2021/01/02 07:44:20;;;;;;;27.58;17.40;;;;;;;;;;5051234;28;20191;-48
2021/01/02 07:46:47;;;;;;;28.73;17.15;;;;;;;;;;5049581;28;20186;-51
2021/01/02 07:49:16;;;;;;;33.25;18.73;;;;;;;;;;5049790;28;20227;-50
2021/01/02 07:51:46;;;;;;;33.95;18.98;;;;;;;;;;5048448;28;20166;-50
2021/01/02 07:54:12;;;;;;;30.05;19.10;;;;;;;;;;5049875;28;20230;-50
2021/01/02 07:56:38;;;;;;;33.67;19.70;;;;;;;;;;5050253;28;20202;-50
2021/01/02 07:59:23;;;;;;;31.77;17.20;;;;;;;;;;5050207;28;20400;-50
2021/01/02 08:01:52;;;;;;;32.22;16.55;;;;;;;;;;5049941;28;20211;-51
2021/01/02 08:04:19;;;;;;;37.40;19.42;;;;;;;;;;5050255;28;20184;-51
2021/01/02 08:06:46;;;;;;;41.28;20.88;;;;;;;;;;5050222;28;20174;-50
2021/01/02 08:09:12;;;;;;;30.92;16.90;;;;;;;;;;5050448;28;20168;-50
2021/01/02 08:11:39;;;;;;;31.98;18.40;;;;;;;;;;5049970;28;20161;-50
2021/01/02 08:14:05;;;;;;;29.63;17.90;;;;;;;;;;5050266;28;20178;-50
2021/01/02 08:16:31;;;;;;;32.23;18.87;;;;;;;;;;5030152;28;20874;-50
2021/01/02 08:19:06;;;;;;;37.07;18.73;;;;;;;;;;5030236;28;20400;-50
2021/01/02 08:21:39;;;;;;;33.08;18.63;;;;;;;;;;5029872;28;20973;-50
2021/01/02 08:24:12;;;;;;;31.58;18.67;;;;;;;;;;5030201;28;20230;-51
2021/01/02 08:26:38;;;;;;;35.88;20.33;;;;;;;;;;5030264;28;20219;-51
2021/01/02 08:29:04;;;;;;;36.42;19.02;;;;;;;;;;5030155;28;20166;-50
2021/01/02 08:31:31;;;;;;;42.10;19.98;;;;;;;;;;5029448;28;20184;-50
2021/01/02 08:33:58;;;;;;;37.40;19.77;;;;;;;;;;5033789;28;20194;-50
2021/01/02 08:36:24;;;;;;;32.22;18.48;;;;;;;;;;5033738;28;20634;-50
2021/01/02 08:39:00;;;;;;;36.00;19.43;;;;;;;;;;5033741;28;20180;-50
2021/01/02 08:41:27;;;;;;;35.80;19.10;;;;;;;;;;5033364;28;20453;-50
2021/01/02 08:43:55;;;;;;;43.25;20.30;;;;;;;;;;5034046;28;20212;-49
2021/01/02 08:46:25;;;;;;;31.52;18.65;;;;;;;;;;5035330;28;20196;-48
2021/01/02 08:48:51;;;;;;;33.95;20.27;;;;;;;;;;5053377;28;20598;-51
2021/01/02 08:51:24;;;;;;;44.05;21.73;;;;;;;;;;5053278;28;20184;-51
2021/01/02 08:53:50;;;;;;;31.65;17.10;;;;;;;;;;5053265;28;20200;-50
2021/01/02 08:56:23;;;;;;;33.17;19.92;;;;;;;;;;5053376;28;20197;-51
2021/01/02 08:58:50;;;;;;;37.22;18.60;;;;;;;;;;5053098;28;20249;-52
2021/01/02 09:01:16;;;;;;;34.35;20.42;;;;;;;;;;5053079;28;20326;-50
2021/01/02 09:03:42;;;;;;;33.30;19.35;;;;;;;;;;5053017;28;20276;-51
2021/01/02 09:06:21;;;;;;;31.73;18.35;;;;;;;;;;5053343;28;20255;-49
2021/01/02 09:09:06;;;;;;;33.30;19.17;;;;;;;;;;5053044;28;20166;-49
2021/01/02 09:11:48;;;;;;;40.50;21.55;;;;;;;;;;5052847;28;20165;-51
2021/01/02 09:14:13;;;;;;;40.20;22.23;;;;;;;;;;5052891;28;20239;-49
2021/01/02 09:16:39;;;;;;;38.90;20.93;;;;;;;;;;5044506;28;20186;-49
2021/01/02 09:19:05;;;;;;;36.67;22.17;;;;;;;;;;5032944;28;20407;-49
2021/01/02 09:21:31;;;;;;;38.33;18.50;;;;;;;;;;5032625;28;20455;-49
2021/01/02 09:23:57;;;;;;;33.22;19.33;;;;;;;;;;5032761;28;20475;-49
2021/01/02 09:26:23;;;;;;;37.43;20.10;;;;;;;;;;5032925;28;20198;-49
2021/01/02 09:28:50;;;;;;;33.80;20.40;;;;;;;;;;5032948;28;20485;-50
2021/01/02 09:31:16;;;;;;;34.40;18.90;;;;;;;;;;5032501;28;20755;-48
2021/01/02 09:33:42;;;;;;;32.28;20.05;;;;;;;;;;5032725;28;20387;-49
2021/01/02 09:36:09;;;;;;;36.33;20.67;;;;;;;;;;5032509;28;20255;-48
2021/01/02 09:38:35;;;;;;;38.78;19.70;;;;;;;;;;5032769;28;20657;-48
2021/01/02 09:41:01;;;;;;;40.10;20.38;;;;;;;;;;5032688;28;20206;-49
2021/01/02 09:43:28;;;;;;;36.72;20.20;;;;;;;;;;5030734;28;20193;-49
2021/01/02 09:45:54;;;;;;;34.78;19.30;;;;;;;;;;5031378;28;20184;-49
2021/01/02 09:48:20;;;;;;;33.08;18.15;;;;;;;;;;5032049;28;20173;-48
2021/01/02 09:50:46;;;;;;;37.47;18.80;;;;;;;;;;5031928;28;20656;-49
2021/01/02 09:53:12;;;;;;;37.10;19.00;;;;;;;;;;5041764;28;20430;-49
2021/01/02 09:55:38;;;;;;;35.83;18.40;;;;;;;;;;5032747;28;20408;-52
2021/01/02 09:58:04;;;;;;;31.90;17.77;;;;;;;;;;5032538;28;20173;-50
2021/01/02 10:00:31;;;;;;;30.05;18.60;;;;;;;;;;5032309;28;20448;-51
2021/01/02 10:02:57;;;;;;;35.75;20.30;;;;;;;;;;5032044;28;20193;-52
2021/01/02 10:05:24;;;;;;;33.47;19.05;;;;;;;;;;5032351;28;20174;-52
2021/01/02 10:07:51;;;;;;;36.00;19.20;;;;;;;;;;5032429;28;20204;-51
2021/01/02 10:10:18;;;;;;;32.63;17.73;;;;;;;;;;5031584;28;20642;-52
2021/01/02 10:12:45;;;;;;;34.42;18.40;;;;;;;;;;5030287;28;20620;-50
2021/01/02 10:15:11;;;;;;;37.83;20.35;;;;;;;;;;5031749;28;20261;-52
2021/01/02 10:17:37;;;;;;;36.17;19.50;;;;;;;;;;5031779;28;20271;-50
2021/01/02 10:20:04;;;;;;;39.97;21.30;;;;;;;;;;5031884;28;20343;-51
2021/01/02 10:22:30;;;;;;;34.25;19.40;;;;;;;;;;5031394;28;20451;-51
2021/01/02 10:24:56;;;;;;;34.92;18.58;;;;;;;;;;5031941;28;20313;-50
2021/01/02 10:27:24;;;;;;;39.30;21.13;;;;;;;;;;5031612;28;20181;-50
2021/01/02 10:29:52;;;;;;;36.50;19.52;;;;;;;;;;5031663;28;20627;-51
2021/01/02 10:32:19;;;;;;;41.00;20.20;;;;;;;;;;5031300;28;20180;-50
2021/01/02 10:34:45;;;;;;;38.67;20.92;;;;;;;;;;5031522;28;20884;-50
2021/01/02 10:37:12;;;;;;;35.03;18.95;;;;;;;;;;5031545;28;20656;-51
2021/01/02 10:39:39;;;;;;;33.80;19.05;;;;;;;;;;5031356;28;20665;-50
2021/01/02 10:42:05;;;;;;;35.17;20.00;;;;;;;;;;5031173;28;20189;-50
2021/01/02 10:44:31;;;;;;;32.15;17.40;;;;;;;;;;5031195;28;20199;-50
2021/01/02 10:46:59;;;;;;;43.73;21.47;;;;;;;;;;5030877;28;20278;-51
2021/01/02 10:49:25;;;;;;;39.13;19.27;;;;;;;;;;5040532;28;20428;-50
2021/01/02 10:51:50;;;;;;;35.97;19.80;;;;;;;;;;5050971;28;20329;-51
2021/01/02 10:54:17;;;;;;;36.60;19.83;;;;;;;;;;5050841;28;20421;-50
2021/01/02 10:56:44;;;;;;;33.30;18.95;;;;;;;;;;5051131;28;20770;-51
2021/01/02 10:59:10;;;;;;;36.97;19.83;;;;;;;;;;5050893;28;20166;-50
2021/01/02 11:01:40;;;;;;;40.67;20.93;;;;;;;;;;5050647;28;20213;-50
2021/01/02 11:04:08;;;;;;;35.08;18.90;;;;;;;;;;5050972;28;20425;-50
2021/01/02 11:06:34;;;;;;;32.75;18.15;;;;;;;;;;5051036;28;20845;-51
2021/01/02 11:09:00;;;;;;;32.53;18.97;;;;;;;;;;5051066;28;20189;-51
2021/01/02 11:11:26;;;;;;;32.03;18.13;;;;;;;;;;5050525;28;20463;-51
2021/01/02 11:13:51;;;;;;;31.57;18.30;;;;;;;;;;5051020;28;20425;-51
2021/01/02 11:16:18;;;;;;;37.50;20.80;;;;;;;;;;5039471;28;20428;-50
2021/01/02 11:18:44;;;;;;;34.10;18.05;;;;;;;;;;5030868;28;20398;-50
2021/01/02 11:21:10;;;;;;;36.42;19.17;;;;;;;;;;5042702;28;20229;-50
2021/01/02 11:23:36;;;;;;;35.17;19.83;;;;;;;;;;5050619;28;20549;-50
2021/01/02 11:26:07;;;;;;;32.00;17.45;;;;;;;;;;5050538;28;20163;-51
2021/01/02 11:28:34;;;;;;;32.15;17.90;;;;;;;;;;5050553;28;20198;-50
2021/01/02 11:30:59;;;;;;;31.40;17.70;;;;;;;;;;5050428;28;20194;-50
2021/01/02 11:33:25;;;;;;;37.77;18.40;;;;;;;;;;5050345;28;20714;-52
2021/01/02 11:35:51;;;;;;;31.00;17.10;;;;;;;;;;5050492;28;20464;-50
2021/01/02 11:38:17;;;;;;;34.30;18.30;;;;;;;;;;5050502;28;20489;-51
2021/01/02 11:40:43;;;;;;;32.53;17.90;;;;;;;;;;5050467;28;20444;-50
2021/01/02 11:43:09;;;;;;;34.60;19.20;;;;;;;;;;5049977;28;20452;-50
2021/01/02 11:45:35;;;;;;;31.13;17.30;;;;;;;;;;5043604;28;20437;-50
2021/01/02 11:48:01;;;;;;;31.53;16.50;;;;;;;;;;5030645;28;20410;-50
2021/01/02 11:50:27;;;;;;;30.70;17.13;;;;;;;;;;5030646;28;21101;-50
2021/01/02 11:52:53;;;;;;;28.40;16.17;;;;;;;;;;5030123;28;20427;-50
2021/01/02 11:55:19;;;;;;;28.27;16.00;;;;;;;;;;5030626;28;20403;-50
2021/01/02 11:57:45;;;;;;;27.83;16.15;;;;;;;;;;5030217;28;20414;-50
2021/01/02 12:00:12;;;;;;;24.00;14.93;;;;;;;;;;5030459;28;20200;-51
2021/01/02 12:02:41;;;;;;;24.00;14.80;;;;;;;;;;5030301;28;20433;-51
2021/01/02 12:05:07;;;;;;;28.73;16.40;;;;;;;;;;5030211;28;20545;-52
2021/01/02 12:07:33;;;;;;;23.77;14.82;;;;;;;;;;5032983;28;20243;-50
2021/01/02 12:09:59;;;;;;;27.33;15.00;;;;;;;;;;5033755;28;20271;-50
2021/01/02 12:12:25;;;;;;;26.00;15.40;;;;;;;;;;5033223;28;20404;-51
2021/01/02 12:14:51;;;;;;;25.10;15.23;;;;;;;;;;5033286;28;20497;-50
2021/01/02 12:17:17;;;;;;;23.90;14.87;;;;;;;;;;5053730;28;20413;-50
2021/01/02 12:19:43;;;;;;;30.53;16.03;;;;;;;;;;5053862;28;20823;-50
2021/01/02 12:22:09;;;;;;;23.80;15.50;;;;;;;;;;5053711;28;20810;-50
2021/01/02 12:24:35;;;;;;;24.83;15.38;;;;;;;;;;5053717;28;20426;-52
2021/01/02 12:27:04;;;;;;;28.05;15.88;;;;;;;;;;5053961;28;20558;-50
2021/01/02 12:29:31;;;;;;;22.17;14.38;;;;;;;;;;5053867;28;20174;-51
2021/01/02 12:31:59;;;;;;;24.75;15.02;;;;;;;;;;5053468;28;20656;-51
2021/01/02 12:34:29;;;;;;;23.38;14.80;;;;;;;;;;5048418;28;20669;-49
2021/01/02 12:36:56;;;;;;;24.00;13.27;;;;;;;;;;5033638;28;20250;-50
2021/01/02 12:39:27;;;;;;;21.58;13.90;;;;;;;;;;5032553;28;20164;-50
2021/01/02 12:41:53;;;;;;;25.73;14.73;;;;;;;;;;5031463;28;20619;-51
2021/01/02 12:44:22;;;;;;;25.60;15.88;;;;;;;;;;5033379;28;20232;-49
2021/01/02 12:46:50;;;;;;;20.88;13.32;;;;;;;;;;5032978;28;20732;-50
2021/01/02 12:49:17;;;;;;;20.23;13.38;;;;;;;;;;5033748;28;20164;-50
2021/01/02 12:51:43;;;;;;;22.90;13.95;;;;;;;;;;5040831;28;20209;-52
2021/01/02 12:54:09;;;;;;;26.80;13.17;;;;;;;;;;5056715;28;20678;-52
2021/01/02 12:56:37;;;;;;;22.30;13.48;;;;;;;;;;5046900;28;21014;-52
2021/01/02 12:59:03;;;;;;;29.80;14.82;;;;;;;;;;5036912;28;20211;-51
2021/01/02 13:01:37;;;;;;;21.00;13.50;;;;;;;;;;5050837;28;20200;-52
2021/01/02 13:04:03;;;;;;;29.35;14.95;;;;;;;;;;5048650;28;21004;-50
2021/01/02 13:06:29;;;;;;;17.98;12.63;;;;;;;;;;5046791;28;20176;-51
2021/01/02 13:08:55;;;;;;;25.43;15.00;;;;;;;;;;5044004;28;20176;-51
2021/01/02 13:11:21;;;;;;;22.60;13.70;;;;;;;;;;5035417;28;20414;-50
2021/01/02 13:13:47;;;;;;;23.90;13.70;;;;;;;;;;5035744;28;20450;-50
2021/01/02 13:16:13;;;;;;;28.00;14.70;;;;;;;;;;5046836;28;20547;-50
2021/01/02 13:18:40;;;;;;;23.33;14.23;;;;;;;;;;5045466;28;20484;-50
2021/01/02 13:21:09;;;;;;;24.05;14.65;;;;;;;;;;5039981;28;20205;-51
2021/01/02 13:23:37;;;;;;;24.00;14.83;;;;;;;;;;5044310;28;20192;-50
2021/01/02 13:26:03;;;;;;;22.90;14.57;;;;;;;;;;5052788;28;20768;-50
2021/01/02 13:28:30;;;;;;;21.13;13.83;;;;;;;;;;5051542;28;20718;-50
2021/01/02 13:30:56;;;;;;;21.40;13.23;;;;;;;;;;5052622;28;20479;-50
2021/01/02 13:33:22;;;;;;;22.57;13.23;;;;;;;;;;5052290;28;20266;-50
2021/01/02 13:35:48;;;;;;;25.63;14.57;;;;;;;;;;5052394;28;20419;-50
2021/01/02 13:38:14;;;;;;;25.80;14.65;;;;;;;;;;5050598;28;20417;-51
2021/01/02 13:40:40;;;;;;;21.00;13.17;;;;;;;;;;5047754;28;20234;-50
2021/01/02 13:43:06;;;;;;;25.30;15.83;;;;;;;;;;5032237;28;20414;-50
2021/01/02 13:45:32;;;;;;;27.83;16.43;;;;;;;;;;5032388;28;20415;-50
2021/01/02 13:47:58;;;;;;;27.80;15.40;;;;;;;;;;5032347;28;20493;-50
2021/01/02 13:50:24;;;;;;;21.90;13.73;;;;;;;;;;5032353;28;20410;-50
2021/01/02 13:52:50;;;;;;;23.30;14.13;;;;;;;;;;5035537;28;20949;-50
2021/01/02 13:55:16;;;;;;;24.90;14.82;;;;;;;;;;5032287;28;20167;-50
2021/01/02 13:57:42;;;;;;;26.53;14.30;;;;;;;;;;5031938;28;20182;-50
2021/01/02 14:00:08;;;;;;;24.55;14.77;;;;;;;;;;5033936;28;20458;-48
2021/01/02 14:02:35;;;;;;;24.88;14.65;;;;;;;;;;5051475;28;20179;-51
2021/01/02 14:05:01;;;;;;;24.90;15.02;;;;;;;;;;5037110;28;20195;-52
2021/01/02 14:07:27;;;;;;;27.73;14.70;;;;;;;;;;5041025;28;20570;-51
2021/01/02 14:09:53;;;;;;;28.70;14.27;;;;;;;;;;5031093;28;20167;-51
2021/01/02 14:12:19;;;;;;;27.07;14.93;;;;;;;;;;5030001;28;21159;-51
2021/01/02 14:14:45;;;;;;;25.47;14.70;;;;;;;;;;5030251;28;20448;-51
2021/01/02 14:17:11;;;;;;;23.90;13.85;;;;;;;;;;5030015;28;20437;-52
2021/01/02 14:19:37;;;;;;;24.47;16.17;;;;;;;;;;5029688;28;20203;-51
2021/01/02 14:22:03;;;;;;;27.27;15.57;;;;;;;;;;5029398;28;20430;-50
2021/01/02 14:24:30;;;;;;;26.40;15.70;;;;;;;;;;5029735;28;20192;-51
2021/01/02 14:26:57;;;;;;;30.52;14.93;;;;;;;;;;5031753;28;20402;-51